sensor_id;sensor_type;location;lat;lon;timestamp;P1;durP1;ratioP1;P2;durP2;ratioP2
54937;SDS011;52756;52.826;6.214;2023-07-20T00:01:15;1.83;;;1.00;;
54937;SDS011;52756;52.826;6.214;2023-07-20T00:03:41;1.60;;;0.98;;
54937;SDS011;52756;52.826;6.214;2023-07-20T00:06:07;1.35;;;0.70;;
54937;SDS011;52756;52.826;6.214;2023-07-20T00:08:33;1.10;;;0.80;;
54937;SDS011;52756;52.826;6.214;2023-07-20T00:10:59;2.22;;;0.90;;
54937;SDS011;52756;52.826;6.214;2023-07-20T00:13:24;1.30;;;0.80;;
54937;SDS011;52756;52.826;6.214;2023-07-20T00:15:51;1.05;;;0.70;;
54937;SDS011;52756;52.826;6.214;2023-07-20T00:18:17;0.98;;;0.70;;
54937;SDS011;52756;52.826;6.214;2023-07-20T00:20:46;1.13;;;0.90;;
54937;SDS011;52756;52.826;6.214;2023-07-20T00:23:12;1.00;;;0.88;;
54937;SDS011;52756;52.826;6.214;2023-07-20T00:25:38;1.00;;;0.90;;
54937;SDS011;52756;52.826;6.214;2023-07-20T00:28:03;1.67;;;0.77;;
54937;SDS011;52756;52.826;6.214;2023-07-20T00:30:29;1.00;;;0.88;;
54937;SDS011;52756;52.826;6.214;2023-07-20T00:32:55;1.33;;;0.90;;
54937;SDS011;52756;52.826;6.214;2023-07-20T00:35:20;1.42;;;0.90;;
54937;SDS011;52756;52.826;6.214;2023-07-20T00:37:46;1.48;;;1.02;;
54937;SDS011;52756;52.826;6.214;2023-07-20T00:40:12;1.00;;;0.77;;
54937;SDS011;52756;52.826;6.214;2023-07-20T00:42:37;0.88;;;0.70;;
54937;SDS011;52756;52.826;6.214;2023-07-20T00:45:04;1.42;;;0.93;;
54937;SDS011;52756;52.826;6.214;2023-07-20T00:47:31;1.20;;;0.90;;
54937;SDS011;52756;52.826;6.214;2023-07-20T00:49:57;0.88;;;0.80;;
54937;SDS011;52756;52.826;6.214;2023-07-20T00:52:23;1.58;;;1.00;;
54937;SDS011;52756;52.826;6.214;2023-07-20T00:54:50;1.00;;;0.70;;
54937;SDS011;52756;52.826;6.214;2023-07-20T00:57:17;1.20;;;0.77;;
54937;SDS011;52756;52.826;6.214;2023-07-20T00:59:44;1.35;;;0.82;;
54937;SDS011;52756;52.826;6.214;2023-07-20T01:02:09;0.70;;;0.63;;
54937;SDS011;52756;52.826;6.214;2023-07-20T01:04:35;1.17;;;0.93;;
54937;SDS011;52756;52.826;6.214;2023-07-20T01:07:16;1.42;;;1.00;;
54937;SDS011;52756;52.826;6.214;2023-07-20T01:09:52;1.27;;;0.90;;
54937;SDS011;52756;52.826;6.214;2023-07-20T01:12:22;2.33;;;1.05;;
54937;SDS011;52756;52.826;6.214;2023-07-20T01:15:05;1.50;;;1.30;;
54937;SDS011;52756;52.826;6.214;2023-07-20T01:17:33;1.20;;;1.00;;
54937;SDS011;52756;52.826;6.214;2023-07-20T01:19:59;1.27;;;0.90;;
54937;SDS011;52756;52.826;6.214;2023-07-20T01:26:20;1.55;;;1.02;;
54937;SDS011;52756;52.826;6.214;2023-07-20T01:33:54;1.40;;;1.10;;
54937;SDS011;52756;52.826;6.214;2023-07-20T01:36:23;1.42;;;1.15;;
54937;SDS011;52756;52.826;6.214;2023-07-20T01:38:51;1.67;;;1.20;;
54937;SDS011;52756;52.826;6.214;2023-07-20T01:41:17;2.20;;;1.17;;
54937;SDS011;52756;52.826;6.214;2023-07-20T01:43:43;2.70;;;1.60;;
54937;SDS011;52756;52.826;6.214;2023-07-20T01:46:09;1.77;;;1.20;;
54937;SDS011;52756;52.826;6.214;2023-07-20T01:48:35;1.63;;;1.10;;
54937;SDS011;52756;52.826;6.214;2023-07-20T01:51:01;1.92;;;1.40;;
54937;SDS011;52756;52.826;6.214;2023-07-20T01:53:27;3.10;;;1.48;;
54937;SDS011;52756;52.826;6.214;2023-07-20T01:55:53;1.55;;;1.30;;
54937;SDS011;52756;52.826;6.214;2023-07-20T01:58:19;3.30;;;1.98;;
54937;SDS011;52756;52.826;6.214;2023-07-20T02:00:45;1.80;;;1.48;;
54937;SDS011;52756;52.826;6.214;2023-07-20T02:03:11;2.05;;;1.58;;
54937;SDS011;52756;52.826;6.214;2023-07-20T02:05:39;1.60;;;1.30;;
54937;SDS011;52756;52.826;6.214;2023-07-20T02:08:07;1.90;;;1.40;;
54937;SDS011;52756;52.826;6.214;2023-07-20T02:10:33;2.22;;;1.40;;
54937;SDS011;52756;52.826;6.214;2023-07-20T02:12:59;1.50;;;1.25;;
54937;SDS011;52756;52.826;6.214;2023-07-20T02:15:25;2.17;;;1.48;;
54937;SDS011;52756;52.826;6.214;2023-07-20T02:17:50;2.95;;;1.88;;
54937;SDS011;52756;52.826;6.214;2023-07-20T02:20:16;1.98;;;1.45;;
54937;SDS011;52756;52.826;6.214;2023-07-20T02:22:43;1.70;;;1.50;;
54937;SDS011;52756;52.826;6.214;2023-07-20T02:25:08;1.75;;;1.42;;
54937;SDS011;52756;52.826;6.214;2023-07-20T02:27:34;1.40;;;1.17;;
54937;SDS011;52756;52.826;6.214;2023-07-20T02:30:00;1.27;;;0.88;;
54937;SDS011;52756;52.826;6.214;2023-07-20T02:32:26;1.48;;;1.00;;
54937;SDS011;52756;52.826;6.214;2023-07-20T02:34:52;2.28;;;1.10;;
54937;SDS011;52756;52.826;6.214;2023-07-20T02:37:18;1.58;;;1.13;;
54937;SDS011;52756;52.826;6.214;2023-07-20T02:39:43;1.00;;;0.70;;
54937;SDS011;52756;52.826;6.214;2023-07-20T02:42:09;0.70;;;0.65;;
54937;SDS011;52756;52.826;6.214;2023-07-20T02:44:35;1.48;;;0.57;;
54937;SDS011;52756;52.826;6.214;2023-07-20T02:47:01;0.63;;;0.57;;
54937;SDS011;52756;52.826;6.214;2023-07-20T02:49:27;0.63;;;0.57;;
54937;SDS011;52756;52.826;6.214;2023-07-20T02:51:52;0.77;;;0.63;;
54937;SDS011;52756;52.826;6.214;2023-07-20T02:54:18;0.88;;;0.70;;
54937;SDS011;52756;52.826;6.214;2023-07-20T02:56:44;1.15;;;0.80;;
54937;SDS011;52756;52.826;6.214;2023-07-20T02:59:10;0.90;;;0.70;;
54937;SDS011;52756;52.826;6.214;2023-07-20T03:01:35;1.05;;;0.82;;
54937;SDS011;52756;52.826;6.214;2023-07-20T03:04:01;1.48;;;0.52;;
54937;SDS011;52756;52.826;6.214;2023-07-20T03:06:27;0.98;;;0.80;;
54937;SDS011;52756;52.826;6.214;2023-07-20T03:08:53;1.35;;;0.80;;
54937;SDS011;52756;52.826;6.214;2023-07-20T03:11:19;0.70;;;0.60;;
54937;SDS011;52756;52.826;6.214;2023-07-20T03:13:48;0.80;;;0.68;;
54937;SDS011;52756;52.826;6.214;2023-07-20T03:16:15;1.60;;;0.60;;
54937;SDS011;52756;52.826;6.214;2023-07-20T03:18:44;1.50;;;0.80;;
54937;SDS011;52756;52.826;6.214;2023-07-20T03:21:10;1.63;;;1.05;;
54937;SDS011;52756;52.826;6.214;2023-07-20T03:23:36;0.80;;;0.60;;
54937;SDS011;52756;52.826;6.214;2023-07-20T03:26:02;1.00;;;0.90;;
54937;SDS011;52756;52.826;6.214;2023-07-20T03:28:28;0.80;;;0.70;;
54937;SDS011;52756;52.826;6.214;2023-07-20T03:30:54;1.05;;;0.85;;
54937;SDS011;52756;52.826;6.214;2023-07-20T03:33:27;1.33;;;1.02;;
54937;SDS011;52756;52.826;6.214;2023-07-20T03:35:54;0.88;;;0.80;;
54937;SDS011;52756;52.826;6.214;2023-07-20T03:38:20;1.02;;;0.90;;
54937;SDS011;52756;52.826;6.214;2023-07-20T03:40:56;1.30;;;0.70;;
54937;SDS011;52756;52.826;6.214;2023-07-20T03:43:24;1.15;;;0.90;;
54937;SDS011;52756;52.826;6.214;2023-07-20T03:45:51;1.45;;;0.90;;
54937;SDS011;52756;52.826;6.214;2023-07-20T03:48:17;1.83;;;0.90;;
54937;SDS011;52756;52.826;6.214;2023-07-20T03:50:45;1.13;;;0.90;;
54937;SDS011;52756;52.826;6.214;2023-07-20T03:53:14;0.88;;;0.85;;
54937;SDS011;52756;52.826;6.214;2023-07-20T03:55:41;0.98;;;0.82;;
54937;SDS011;52756;52.826;6.214;2023-07-20T03:58:09;1.20;;;0.80;;
54937;SDS011;52756;52.826;6.214;2023-07-20T04:00:35;1.23;;;0.95;;
54937;SDS011;52756;52.826;6.214;2023-07-20T04:03:00;0.90;;;0.77;;
54937;SDS011;52756;52.826;6.214;2023-07-20T04:05:26;1.05;;;0.60;;
54937;SDS011;52756;52.826;6.214;2023-07-20T04:07:52;1.08;;;0.80;;
54937;SDS011;52756;52.826;6.214;2023-07-20T04:10:18;0.95;;;0.70;;
54937;SDS011;52756;52.826;6.214;2023-07-20T04:12:44;1.00;;;0.73;;
54937;SDS011;52756;52.826;6.214;2023-07-20T04:15:12;0.80;;;0.70;;
54937;SDS011;52756;52.826;6.214;2023-07-20T04:17:38;1.00;;;0.90;;
54937;SDS011;52756;52.826;6.214;2023-07-20T04:20:04;1.23;;;0.80;;
54937;SDS011;52756;52.826;6.214;2023-07-20T04:22:31;0.73;;;0.60;;
54937;SDS011;52756;52.826;6.214;2023-07-20T04:24:57;1.05;;;0.68;;
54937;SDS011;52756;52.826;6.214;2023-07-20T04:27:22;1.27;;;0.90;;
54937;SDS011;52756;52.826;6.214;2023-07-20T04:29:48;1.00;;;0.80;;
54937;SDS011;52756;52.826;6.214;2023-07-20T04:32:14;0.90;;;0.80;;
54937;SDS011;52756;52.826;6.214;2023-07-20T04:34:40;0.77;;;0.57;;
54937;SDS011;52756;52.826;6.214;2023-07-20T04:37:06;0.88;;;0.57;;
54937;SDS011;52756;52.826;6.214;2023-07-20T04:39:32;1.15;;;0.80;;
54937;SDS011;52756;52.826;6.214;2023-07-20T04:41:57;0.93;;;0.75;;
54937;SDS011;52756;52.826;6.214;2023-07-20T04:44:23;0.68;;;0.50;;
54937;SDS011;52756;52.826;6.214;2023-07-20T04:46:49;1.38;;;0.77;;
54937;SDS011;52756;52.826;6.214;2023-07-20T04:49:15;0.65;;;0.52;;
54937;SDS011;52756;52.826;6.214;2023-07-20T04:51:41;0.93;;;0.73;;
54937;SDS011;52756;52.826;6.214;2023-07-20T04:54:06;1.13;;;0.70;;
54937;SDS011;52756;52.826;6.214;2023-07-20T04:56:32;1.30;;;0.90;;
54937;SDS011;52756;52.826;6.214;2023-07-20T04:58:58;0.90;;;0.80;;
54937;SDS011;52756;52.826;6.214;2023-07-20T05:01:24;1.13;;;0.85;;
54937;SDS011;52756;52.826;6.214;2023-07-20T05:03:51;1.63;;;1.33;;
54937;SDS011;52756;52.826;6.214;2023-07-20T05:06:17;2.28;;;1.60;;
54937;SDS011;52756;52.826;6.214;2023-07-20T05:08:43;3.00;;;1.90;;
54937;SDS011;52756;52.826;6.214;2023-07-20T05:11:09;3.35;;;2.22;;
54937;SDS011;52756;52.826;6.214;2023-07-20T05:13:35;2.90;;;2.42;;
54937;SDS011;52756;52.826;6.214;2023-07-20T05:16:01;3.67;;;2.92;;
54937;SDS011;52756;52.826;6.214;2023-07-20T05:18:27;4.38;;;2.70;;
54937;SDS011;52756;52.826;6.214;2023-07-20T05:20:53;3.78;;;2.38;;
54937;SDS011;52756;52.826;6.214;2023-07-20T05:23:20;4.00;;;2.40;;
54937;SDS011;52756;52.826;6.214;2023-07-20T05:25:47;4.35;;;2.30;;
54937;SDS011;52756;52.826;6.214;2023-07-20T05:28:18;3.83;;;2.08;;
54937;SDS011;52756;52.826;6.214;2023-07-20T05:30:44;3.58;;;2.60;;
54937;SDS011;52756;52.826;6.214;2023-07-20T05:33:10;2.88;;;1.95;;
54937;SDS011;52756;52.826;6.214;2023-07-20T05:35:36;2.90;;;2.00;;
54937;SDS011;52756;52.826;6.214;2023-07-20T05:38:02;4.22;;;2.00;;
54937;SDS011;52756;52.826;6.214;2023-07-20T05:40:30;4.28;;;2.10;;
54937;SDS011;52756;52.826;6.214;2023-07-20T05:42:55;2.30;;;1.63;;
54937;SDS011;52756;52.826;6.214;2023-07-20T05:45:22;2.90;;;1.70;;
54937;SDS011;52756;52.826;6.214;2023-07-20T05:47:48;3.03;;;1.65;;
54937;SDS011;52756;52.826;6.214;2023-07-20T05:50:13;2.97;;;1.55;;
54937;SDS011;52756;52.826;6.214;2023-07-20T05:52:39;5.45;;;1.60;;
54937;SDS011;52756;52.826;6.214;2023-07-20T05:55:05;2.35;;;1.25;;
54937;SDS011;52756;52.826;6.214;2023-07-20T05:57:32;4.07;;;1.67;;
54937;SDS011;52756;52.826;6.214;2023-07-20T05:59:58;2.00;;;1.30;;
54937;SDS011;52756;52.826;6.214;2023-07-20T06:02:23;2.10;;;1.45;;
54937;SDS011;52756;52.826;6.214;2023-07-20T06:04:49;3.15;;;1.45;;
54937;SDS011;52756;52.826;6.214;2023-07-20T06:07:15;1.60;;;1.27;;
54937;SDS011;52756;52.826;6.214;2023-07-20T06:09:41;2.20;;;1.67;;
54937;SDS011;52756;52.826;6.214;2023-07-20T06:12:07;2.25;;;1.70;;
54937;SDS011;52756;52.826;6.214;2023-07-20T06:14:33;2.65;;;1.90;;
54937;SDS011;52756;52.826;6.214;2023-07-20T06:16:59;3.10;;;1.80;;
54937;SDS011;52756;52.826;6.214;2023-07-20T06:19:25;3.30;;;1.63;;
54937;SDS011;52756;52.826;6.214;2023-07-20T06:21:50;2.38;;;1.60;;
54937;SDS011;52756;52.826;6.214;2023-07-20T06:24:16;2.17;;;1.33;;
54937;SDS011;52756;52.826;6.214;2023-07-20T06:26:42;1.88;;;1.33;;
54937;SDS011;52756;52.826;6.214;2023-07-20T06:29:08;2.05;;;1.20;;
54937;SDS011;52756;52.826;6.214;2023-07-20T06:31:34;4.75;;;1.33;;
54937;SDS011;52756;52.826;6.214;2023-07-20T06:34:00;2.60;;;1.00;;
54937;SDS011;52756;52.826;6.214;2023-07-20T06:36:26;2.38;;;1.00;;
54937;SDS011;52756;52.826;6.214;2023-07-20T06:38:52;1.20;;;0.63;;
54937;SDS011;52756;52.826;6.214;2023-07-20T06:41:18;2.10;;;1.10;;
54937;SDS011;52756;52.826;6.214;2023-07-20T06:43:44;2.95;;;0.80;;
54937;SDS011;52756;52.826;6.214;2023-07-20T06:46:10;1.65;;;0.52;;
54937;SDS011;52756;52.826;6.214;2023-07-20T06:48:36;1.70;;;0.65;;
54937;SDS011;52756;52.826;6.214;2023-07-20T06:51:02;3.60;;;0.90;;
54937;SDS011;52756;52.826;6.214;2023-07-20T06:53:28;1.00;;;0.50;;
54937;SDS011;52756;52.826;6.214;2023-07-20T06:55:54;2.30;;;0.80;;
54937;SDS011;52756;52.826;6.214;2023-07-20T06:58:22;1.33;;;0.60;;
54937;SDS011;52756;52.826;6.214;2023-07-20T07:00:48;1.95;;;0.57;;
54937;SDS011;52756;52.826;6.214;2023-07-20T07:03:14;1.80;;;0.50;;
54937;SDS011;52756;52.826;6.214;2023-07-20T07:05:40;0.88;;;0.50;;
54937;SDS011;52756;52.826;6.214;2023-07-20T07:08:06;1.48;;;0.60;;
54937;SDS011;52756;52.826;6.214;2023-07-20T07:10:32;1.70;;;0.60;;
54937;SDS011;52756;52.826;6.214;2023-07-20T07:13:00;1.90;;;0.68;;
54937;SDS011;52756;52.826;6.214;2023-07-20T07:15:26;1.42;;;0.50;;
54937;SDS011;52756;52.826;6.214;2023-07-20T07:17:52;1.00;;;0.60;;
54937;SDS011;52756;52.826;6.214;2023-07-20T07:20:18;2.60;;;0.82;;
54937;SDS011;52756;52.826;6.214;2023-07-20T07:22:44;0.80;;;0.40;;
54937;SDS011;52756;52.826;6.214;2023-07-20T07:25:10;2.85;;;0.60;;
54937;SDS011;52756;52.826;6.214;2023-07-20T07:27:36;1.02;;;0.60;;
54937;SDS011;52756;52.826;6.214;2023-07-20T07:30:02;1.75;;;0.70;;
54937;SDS011;52756;52.826;6.214;2023-07-20T07:32:28;1.05;;;0.40;;
54937;SDS011;52756;52.826;6.214;2023-07-20T07:34:54;1.75;;;0.70;;
54937;SDS011;52756;52.826;6.214;2023-07-20T07:37:21;1.00;;;0.50;;
54937;SDS011;52756;52.826;6.214;2023-07-20T07:39:46;1.33;;;0.47;;
54937;SDS011;52756;52.826;6.214;2023-07-20T07:42:12;2.38;;;0.60;;
54937;SDS011;52756;52.826;6.214;2023-07-20T07:44:38;1.75;;;0.90;;
54937;SDS011;52756;52.826;6.214;2023-07-20T07:47:04;2.22;;;1.13;;
54937;SDS011;52756;52.826;6.214;2023-07-20T07:49:30;2.03;;;0.75;;
54937;SDS011;52756;52.826;6.214;2023-07-20T07:51:56;2.67;;;0.80;;
54937;SDS011;52756;52.826;6.214;2023-07-20T07:54:22;2.03;;;0.50;;
54937;SDS011;52756;52.826;6.214;2023-07-20T07:56:48;1.35;;;0.50;;
54937;SDS011;52756;52.826;6.214;2023-07-20T07:59:13;0.85;;;0.52;;
54937;SDS011;52756;52.826;6.214;2023-07-20T08:01:39;1.75;;;0.60;;
54937;SDS011;52756;52.826;6.214;2023-07-20T08:04:05;0.90;;;0.50;;
54937;SDS011;52756;52.826;6.214;2023-07-20T08:06:30;1.50;;;0.70;;
54937;SDS011;52756;52.826;6.214;2023-07-20T08:08:57;1.83;;;0.70;;
54937;SDS011;52756;52.826;6.214;2023-07-20T08:11:23;2.60;;;0.77;;
54937;SDS011;52756;52.826;6.214;2023-07-20T08:13:49;2.80;;;0.80;;
54937;SDS011;52756;52.826;6.214;2023-07-20T08:16:14;2.58;;;0.75;;
54937;SDS011;52756;52.826;6.214;2023-07-20T08:18:40;1.17;;;0.50;;
54937;SDS011;52756;52.826;6.214;2023-07-20T08:21:06;1.25;;;0.93;;
54937;SDS011;52756;52.826;6.214;2023-07-20T08:23:32;2.47;;;0.60;;
54937;SDS011;52756;52.826;6.214;2023-07-20T08:25:58;1.75;;;0.50;;
54937;SDS011;52756;52.826;6.214;2023-07-20T08:28:23;2.20;;;0.80;;
54937;SDS011;52756;52.826;6.214;2023-07-20T08:30:51;2.60;;;0.88;;
54937;SDS011;52756;52.826;6.214;2023-07-20T08:33:17;2.53;;;0.80;;
54937;SDS011;52756;52.826;6.214;2023-07-20T08:35:44;1.45;;;0.70;;
54937;SDS011;52756;52.826;6.214;2023-07-20T08:38:11;2.15;;;0.80;;
54937;SDS011;52756;52.826;6.214;2023-07-20T08:40:44;1.67;;;0.75;;
54937;SDS011;52756;52.826;6.214;2023-07-20T08:43:11;2.97;;;1.10;;
54937;SDS011;52756;52.826;6.214;2023-07-20T08:45:38;2.65;;;0.80;;
54937;SDS011;52756;52.826;6.214;2023-07-20T08:48:06;2.78;;;0.95;;
54937;SDS011;52756;52.826;6.214;2023-07-20T08:50:33;1.98;;;0.50;;
54937;SDS011;52756;52.826;6.214;2023-07-20T08:53:00;1.35;;;0.50;;
54937;SDS011;52756;52.826;6.214;2023-07-20T08:55:26;1.95;;;0.50;;
54937;SDS011;52756;52.826;6.214;2023-07-20T08:57:54;2.05;;;0.95;;
54937;SDS011;52756;52.826;6.214;2023-07-20T09:00:20;2.95;;;0.70;;
54937;SDS011;52756;52.826;6.214;2023-07-20T09:02:48;1.13;;;0.50;;
54937;SDS011;52756;52.826;6.214;2023-07-20T09:05:16;1.85;;;0.60;;
54937;SDS011;52756;52.826;6.214;2023-07-20T09:07:43;0.63;;;0.50;;
54937;SDS011;52756;52.826;6.214;2023-07-20T09:10:08;1.23;;;0.50;;
54937;SDS011;52756;52.826;6.214;2023-07-20T09:12:39;2.55;;;0.63;;
54937;SDS011;52756;52.826;6.214;2023-07-20T09:15:06;1.50;;;0.50;;
54937;SDS011;52756;52.826;6.214;2023-07-20T09:17:33;4.00;;;0.82;;
54937;SDS011;52756;52.826;6.214;2023-07-20T09:20:03;2.67;;;0.93;;
54937;SDS011;52756;52.826;6.214;2023-07-20T09:22:33;1.67;;;0.60;;
54937;SDS011;52756;52.826;6.214;2023-07-20T09:24:59;1.90;;;0.65;;
54937;SDS011;52756;52.826;6.214;2023-07-20T09:27:34;2.22;;;0.75;;
54937;SDS011;52756;52.826;6.214;2023-07-20T09:30:01;2.45;;;0.60;;
54937;SDS011;52756;52.826;6.214;2023-07-20T09:32:28;1.65;;;0.60;;
54937;SDS011;52756;52.826;6.214;2023-07-20T09:34:54;1.90;;;0.60;;
54937;SDS011;52756;52.826;6.214;2023-07-20T09:37:20;1.73;;;0.68;;
54937;SDS011;52756;52.826;6.214;2023-07-20T09:39:47;1.20;;;0.50;;
54937;SDS011;52756;52.826;6.214;2023-07-20T09:42:14;2.65;;;0.82;;
54937;SDS011;52756;52.826;6.214;2023-07-20T09:44:43;1.40;;;0.50;;
54937;SDS011;52756;52.826;6.214;2023-07-20T09:47:09;1.65;;;0.50;;
54937;SDS011;52756;52.826;6.214;2023-07-20T09:49:44;2.05;;;0.50;;
54937;SDS011;52756;52.826;6.214;2023-07-20T09:52:09;0.93;;;0.55;;
54937;SDS011;52756;52.826;6.214;2023-07-20T09:54:40;0.98;;;0.40;;
54937;SDS011;52756;52.826;6.214;2023-07-20T09:57:07;1.85;;;0.55;;
54937;SDS011;52756;52.826;6.214;2023-07-20T09:59:37;2.90;;;0.68;;
54937;SDS011;52756;52.826;6.214;2023-07-20T10:02:04;0.60;;;0.45;;
54937;SDS011;52756;52.826;6.214;2023-07-20T10:04:38;0.30;;;0.30;;
54937;SDS011;52756;52.826;6.214;2023-07-20T10:07:05;3.03;;;0.63;;
54937;SDS011;52756;52.826;6.214;2023-07-20T10:09:37;0.80;;;0.50;;
54937;SDS011;52756;52.826;6.214;2023-07-20T10:12:05;1.63;;;0.75;;
54937;SDS011;52756;52.826;6.214;2023-07-20T10:14:33;2.00;;;0.60;;
54937;SDS011;52756;52.826;6.214;2023-07-20T10:17:03;0.98;;;0.50;;
54937;SDS011;52756;52.826;6.214;2023-07-20T10:22:08;2.17;;;0.70;;
54937;SDS011;52756;52.826;6.214;2023-07-20T10:24:39;0.60;;;0.40;;
54937;SDS011;52756;52.826;6.214;2023-07-20T10:27:06;0.57;;;0.40;;
54937;SDS011;52756;52.826;6.214;2023-07-20T10:29:32;1.60;;;0.52;;
54937;SDS011;52756;52.826;6.214;2023-07-20T10:31:58;0.77;;;0.45;;
54937;SDS011;52756;52.826;6.214;2023-07-20T10:34:25;2.08;;;0.70;;
54937;SDS011;52756;52.826;6.214;2023-07-20T10:36:51;2.28;;;0.65;;
54937;SDS011;52756;52.826;6.214;2023-07-20T10:39:26;2.25;;;0.82;;
54937;SDS011;52756;52.826;6.214;2023-07-20T10:42:03;1.30;;;0.40;;
54937;SDS011;52756;52.826;6.214;2023-07-20T10:44:33;1.52;;;0.50;;
54937;SDS011;52756;52.826;6.214;2023-07-20T10:47:00;1.48;;;0.43;;
54937;SDS011;52756;52.826;6.214;2023-07-20T10:49:27;1.00;;;0.50;;
54937;SDS011;52756;52.826;6.214;2023-07-20T10:51:56;2.28;;;0.60;;
54937;SDS011;52756;52.826;6.214;2023-07-20T10:56:52;1.30;;;0.50;;
54937;SDS011;52756;52.826;6.214;2023-07-20T11:01:48;1.27;;;0.40;;
54937;SDS011;52756;52.826;6.214;2023-07-20T11:04:15;1.30;;;0.57;;
54937;SDS011;52756;52.826;6.214;2023-07-20T11:06:44;2.38;;;0.57;;
54937;SDS011;52756;52.826;6.214;2023-07-20T11:09:22;0.70;;;0.40;;
54937;SDS011;52756;52.826;6.214;2023-07-20T11:11:51;0.40;;;0.40;;
54937;SDS011;52756;52.826;6.214;2023-07-20T11:14:42;1.83;;;0.50;;
54937;SDS011;52756;52.826;6.214;2023-07-20T11:17:17;0.90;;;0.50;;
54937;SDS011;52756;52.826;6.214;2023-07-20T11:19:47;2.15;;;0.73;;
54937;SDS011;52756;52.826;6.214;2023-07-20T11:22:16;2.42;;;0.80;;
54937;SDS011;52756;52.826;6.214;2023-07-20T11:24:42;0.77;;;0.40;;
54937;SDS011;52756;52.826;6.214;2023-07-20T11:27:09;2.15;;;0.50;;
54937;SDS011;52756;52.826;6.214;2023-07-20T11:29:34;1.65;;;0.50;;
54937;SDS011;52756;52.826;6.214;2023-07-20T11:32:02;1.88;;;0.77;;
54937;SDS011;52756;52.826;6.214;2023-07-20T11:34:29;1.90;;;0.60;;
54937;SDS011;52756;52.826;6.214;2023-07-20T11:36:56;2.53;;;0.80;;
54937;SDS011;52756;52.826;6.214;2023-07-20T11:39:22;1.52;;;0.60;;
54937;SDS011;52756;52.826;6.214;2023-07-20T11:41:54;2.03;;;0.60;;
54937;SDS011;52756;52.826;6.214;2023-07-20T11:44:25;2.45;;;0.60;;
54937;SDS011;52756;52.826;6.214;2023-07-20T11:49:30;1.60;;;0.88;;
54937;SDS011;52756;52.826;6.214;2023-07-20T11:52:13;1.35;;;0.55;;
54937;SDS011;52756;52.826;6.214;2023-07-20T11:54:42;2.13;;;0.95;;
54937;SDS011;52756;52.826;6.214;2023-07-20T11:57:18;1.45;;;0.57;;
54937;SDS011;52756;52.826;6.214;2023-07-20T11:59:57;2.63;;;0.70;;
54937;SDS011;52756;52.826;6.214;2023-07-20T12:02:29;1.98;;;0.75;;
54937;SDS011;52756;52.826;6.214;2023-07-20T12:04:55;1.45;;;0.60;;
54937;SDS011;52756;52.826;6.214;2023-07-20T12:07:21;2.03;;;0.80;;
54937;SDS011;52756;52.826;6.214;2023-07-20T12:10:07;2.65;;;0.70;;
54937;SDS011;52756;52.826;6.214;2023-07-20T12:12:40;2.13;;;0.70;;
54937;SDS011;52756;52.826;6.214;2023-07-20T12:15:16;1.70;;;0.60;;
54937;SDS011;52756;52.826;6.214;2023-07-20T12:17:45;2.50;;;0.60;;
54937;SDS011;52756;52.826;6.214;2023-07-20T12:20:24;2.67;;;0.60;;
54937;SDS011;52756;52.826;6.214;2023-07-20T12:23:10;2.80;;;0.90;;
54937;SDS011;52756;52.826;6.214;2023-07-20T12:25:44;1.63;;;0.50;;
54937;SDS011;52756;52.826;6.214;2023-07-20T12:28:12;1.05;;;0.50;;
54937;SDS011;52756;52.826;6.214;2023-07-20T12:30:43;1.95;;;0.70;;
54937;SDS011;52756;52.826;6.214;2023-07-20T12:33:10;2.08;;;0.60;;
54937;SDS011;52756;52.826;6.214;2023-07-20T12:35:40;1.27;;;0.40;;
54937;SDS011;52756;52.826;6.214;2023-07-20T12:38:08;0.47;;;0.40;;
54937;SDS011;52756;52.826;6.214;2023-07-20T12:40:34;0.93;;;0.40;;
54937;SDS011;52756;52.826;6.214;2023-07-20T12:43:01;0.68;;;0.30;;
54937;SDS011;52756;52.826;6.214;2023-07-20T12:45:27;1.33;;;0.63;;
54937;SDS011;52756;52.826;6.214;2023-07-20T12:47:52;1.10;;;0.40;;
54937;SDS011;52756;52.826;6.214;2023-07-20T12:50:18;1.25;;;0.30;;
54937;SDS011;52756;52.826;6.214;2023-07-20T12:52:44;3.38;;;0.65;;
54937;SDS011;52756;52.826;6.214;2023-07-20T12:55:09;1.15;;;0.40;;
54937;SDS011;52756;52.826;6.214;2023-07-20T12:57:35;3.65;;;1.02;;
54937;SDS011;52756;52.826;6.214;2023-07-20T13:00:06;1.02;;;0.32;;
54937;SDS011;52756;52.826;6.214;2023-07-20T13:02:34;1.10;;;0.50;;
54937;SDS011;52756;52.826;6.214;2023-07-20T13:05:01;0.70;;;0.50;;
54937;SDS011;52756;52.826;6.214;2023-07-20T13:07:34;2.50;;;0.50;;
54937;SDS011;52756;52.826;6.214;2023-07-20T13:10:01;0.88;;;0.50;;
54937;SDS011;52756;52.826;6.214;2023-07-20T13:12:29;1.60;;;0.55;;
54937;SDS011;52756;52.826;6.214;2023-07-20T13:14:55;1.50;;;0.50;;
54937;SDS011;52756;52.826;6.214;2023-07-20T13:17:22;1.15;;;0.30;;
54937;SDS011;52756;52.826;6.214;2023-07-20T13:19:48;0.75;;;0.43;;
54937;SDS011;52756;52.826;6.214;2023-07-20T13:22:14;3.17;;;1.05;;
54937;SDS011;52756;52.826;6.214;2023-07-20T13:24:40;0.63;;;0.40;;
54937;SDS011;52756;52.826;6.214;2023-07-20T13:27:06;2.08;;;0.50;;
54937;SDS011;52756;52.826;6.214;2023-07-20T13:29:32;2.05;;;0.47;;
54937;SDS011;52756;52.826;6.214;2023-07-20T13:31:58;3.20;;;0.60;;
54937;SDS011;52756;52.826;6.214;2023-07-20T13:34:25;1.88;;;0.50;;
54937;SDS011;52756;52.826;6.214;2023-07-20T13:36:51;0.98;;;0.50;;
54937;SDS011;52756;52.826;6.214;2023-07-20T13:39:17;1.27;;;0.50;;
54937;SDS011;52756;52.826;6.214;2023-07-20T13:41:42;1.33;;;0.43;;
54937;SDS011;52756;52.826;6.214;2023-07-20T13:44:10;0.73;;;0.40;;
54937;SDS011;52756;52.826;6.214;2023-07-20T13:46:35;1.13;;;0.32;;
54937;SDS011;52756;52.826;6.214;2023-07-20T13:49:01;0.50;;;0.30;;
54937;SDS011;52756;52.826;6.214;2023-07-20T13:51:27;1.02;;;0.35;;
54937;SDS011;52756;52.826;6.214;2023-07-20T13:53:53;1.05;;;0.30;;
54937;SDS011;52756;52.826;6.214;2023-07-20T13:56:18;1.00;;;0.50;;
54937;SDS011;52756;52.826;6.214;2023-07-20T13:58:44;1.98;;;0.52;;
54937;SDS011;52756;52.826;6.214;2023-07-20T14:01:10;2.92;;;0.70;;
54937;SDS011;52756;52.826;6.214;2023-07-20T14:03:35;6.72;;;0.70;;
54937;SDS011;52756;52.826;6.214;2023-07-20T14:06:02;3.03;;;0.47;;
54937;SDS011;52756;52.826;6.214;2023-07-20T14:08:28;1.40;;;0.40;;
54937;SDS011;52756;52.826;6.214;2023-07-20T14:10:55;0.98;;;0.50;;
54937;SDS011;52756;52.826;6.214;2023-07-20T14:13:20;0.68;;;0.50;;
54937;SDS011;52756;52.826;6.214;2023-07-20T14:15:46;1.02;;;0.40;;
54937;SDS011;52756;52.826;6.214;2023-07-20T14:18:12;0.30;;;0.30;;
54937;SDS011;52756;52.826;6.214;2023-07-20T14:20:38;1.98;;;0.60;;
54937;SDS011;52756;52.826;6.214;2023-07-20T14:23:03;0.30;;;0.28;;
54937;SDS011;52756;52.826;6.214;2023-07-20T14:25:30;0.95;;;0.45;;
54937;SDS011;52756;52.826;6.214;2023-07-20T14:27:57;1.45;;;0.45;;
54937;SDS011;52756;52.826;6.214;2023-07-20T14:30:23;1.17;;;0.60;;
54937;SDS011;52756;52.826;6.214;2023-07-20T14:32:49;1.60;;;0.40;;
54937;SDS011;52756;52.826;6.214;2023-07-20T14:35:14;1.85;;;0.52;;
54937;SDS011;52756;52.826;6.214;2023-07-20T14:37:40;0.75;;;0.50;;
54937;SDS011;52756;52.826;6.214;2023-07-20T14:40:06;1.75;;;0.70;;
54937;SDS011;52756;52.826;6.214;2023-07-20T14:42:32;1.08;;;0.60;;
54937;SDS011;52756;52.826;6.214;2023-07-20T14:44:58;2.75;;;0.65;;
54937;SDS011;52756;52.826;6.214;2023-07-20T14:47:24;1.33;;;0.35;;
54937;SDS011;52756;52.826;6.214;2023-07-20T14:49:50;0.70;;;0.40;;
54937;SDS011;52756;52.826;6.214;2023-07-20T14:52:15;3.17;;;0.50;;
54937;SDS011;52756;52.826;6.214;2023-07-20T14:54:42;1.08;;;0.57;;
54937;SDS011;52756;52.826;6.214;2023-07-20T14:57:08;2.92;;;0.50;;
54937;SDS011;52756;52.826;6.214;2023-07-20T14:59:39;2.20;;;0.85;;
54937;SDS011;52756;52.826;6.214;2023-07-20T15:02:05;0.93;;;0.40;;
54937;SDS011;52756;52.826;6.214;2023-07-20T15:04:31;0.75;;;0.40;;
54937;SDS011;52756;52.826;6.214;2023-07-20T15:06:57;1.27;;;0.60;;